Time;durP1;ratioP1;P1;durP2;ratioP2;P2;SDS_P1;SDS_P2;PMS_P1;PMS_P2;Temp;Humidity;BMP_temperature;BMP_pressure;BME280_temperature;BME280_humidity;BME280_pressure;Samples;Min_cycle;Max_cycle;Signal;HPM_P1;HPM_P2
2021/03/02 00:02:04;;;;;;;12.77;7.68;;;5.20;99.90;;;;;;5007425;28;20196;-85
2021/03/02 00:04:30;;;;;;;13.60;7.97;;;5.00;99.90;;;;;;5012201;28;20102;-84
2021/03/02 00:06:57;;;;;;;12.25;8.27;;;5.00;99.90;;;;;;5012504;28;20177;-85
2021/03/02 00:09:23;;;;;;;15.70;8.65;;;4.80;99.90;;;;;;5015054;28;20074;-86
2021/03/02 00:11:50;;;;;;;16.83;9.50;;;4.60;99.90;;;;;;5012055;28;20079;-85
2021/03/02 00:14:17;;;;;;;14.43;8.82;;;4.60;99.90;;;;;;5012240;28;20093;-85
2021/03/02 00:16:55;;;;;;;14.95;8.68;;;4.60;99.90;;;;;;5014988;28;20175;-85
2021/03/02 00:19:45;;;;;;;13.88;8.00;;;4.50;99.90;;;;;;5011961;28;20201;-85
2021/03/02 00:22:19;;;;;;;14.85;9.60;;;4.50;99.90;;;;;;5005930;28;20620;-84
2021/03/02 00:24:53;;;;;;;13.82;8.88;;;4.50;99.90;;;;;;4993819;28;20176;-85
2021/03/02 00:27:19;;;;;;;17.20;9.00;;;4.50;99.90;;;;;;4994545;28;20630;-85
2021/03/02 00:29:46;;;;;;;15.30;8.70;;;4.60;99.90;;;;;;5001457;28;20090;-86
2021/03/02 00:32:16;;;;;;;15.63;8.52;;;4.70;99.90;;;;;;5012754;28;20074;-85
2021/03/02 00:34:42;;;;;;;16.40;8.43;;;4.60;99.90;;;;;;4998062;28;20093;-86
2021/03/02 00:37:07;;;;;;;13.73;10.13;;;4.60;99.90;;;;;;5024158;28;20082;-86
2021/03/02 00:39:33;;;;;;;15.93;9.77;;;4.60;99.90;;;;;;4997609;28;20214;-86
2021/03/02 00:41:59;;;;;;;21.75;10.73;;;4.70;99.90;;;;;;4994640;28;20086;-85
2021/03/02 00:44:25;;;;;;;25.60;9.82;;;4.80;99.90;;;;;;5004915;28;20144;-85
2021/03/02 00:46:50;;;;;;;15.73;9.68;;;4.70;99.90;;;;;;5009931;28;20560;-86
2021/03/02 00:49:16;;;;;;;16.13;9.68;;;4.50;99.90;;;;;;5006640;28;20095;-86
2021/03/02 00:51:42;;;;;;;14.93;9.05;;;4.60;99.90;;;;;;5009320;28;20117;-86
2021/03/02 00:54:07;;;;;;;17.50;9.85;;;4.60;99.90;;;;;;5007078;28;20093;-86
2021/03/02 00:56:33;;;;;;;15.95;9.60;;;4.60;99.90;;;;;;5008304;28;20504;-85
2021/03/02 00:58:58;;;;;;;18.02;10.30;;;4.60;99.90;;;;;;4998337;28;20104;-87
2021/03/02 01:01:24;;;;;;;16.60;9.73;;;4.60;99.90;;;;;;5011651;28;20074;-87
2021/03/02 01:03:50;;;;;;;15.02;8.40;;;4.60;99.90;;;;;;5005314;28;20189;-88
2021/03/02 01:06:16;;;;;;;19.10;9.10;;;4.60;99.90;;;;;;5013555;28;20102;-87
2021/03/02 01:08:43;;;;;;;17.83;10.07;;;4.70;99.90;;;;;;5002352;28;20098;-86
2021/03/02 01:11:09;;;;;;;16.05;8.73;;;4.20;99.90;;;;;;5011680;28;20089;-87
2021/03/02 01:13:35;;;;;;;14.38;8.75;;;4.10;99.90;;;;;;5008833;28;20086;-87
2021/03/02 01:16:01;;;;;;;17.58;9.25;;;4.20;99.90;;;;;;5008385;28;20528;-87
2021/03/02 01:18:26;;;;;;;16.55;9.77;;;4.10;99.90;;;;;;4993166;28;20525;-86
2021/03/02 01:20:52;;;;;;;14.85;8.90;;;3.80;99.90;;;;;;5006815;28;20085;-87
2021/03/02 01:23:19;;;;;;;16.02;9.30;;;3.90;99.90;;;;;;5010164;28;20081;-87
2021/03/02 01:25:45;;;;;;;19.80;10.27;;;3.80;99.90;;;;;;5014391;28;20160;-87
2021/03/02 01:28:10;;;;;;;16.73;10.50;;;3.70;99.90;;;;;;5015605;28;20544;-86
2021/03/02 01:30:37;;;;;;;15.23;9.02;;;3.60;99.90;;;;;;5009728;28;20452;-86
2021/03/02 01:33:03;;;;;;;15.32;9.10;;;3.80;99.90;;;;;;5010913;28;20094;-87
2021/03/02 01:35:29;;;;;;;14.70;8.90;;;3.80;99.90;;;;;;4997949;28;20160;-87
2021/03/02 01:37:55;;;;;;;15.88;9.82;;;3.80;99.90;;;;;;4998387;28;20105;-85
2021/03/02 01:40:21;;;;;;;18.95;9.07;;;4.10;99.90;;;;;;4998068;28;20576;-86
2021/03/02 01:42:47;;;;;;;16.70;8.98;;;3.80;99.90;;;;;;4998800;28;20632;-85
2021/03/02 01:45:18;;;;;;;13.32;8.27;;;3.80;99.90;;;;;;4998777;28;20138;-86
2021/03/02 01:47:48;;;;;;;16.95;9.68;;;3.80;99.90;;;;;;5014443;28;20077;-85
2021/03/02 01:50:13;;;;;;;18.48;8.98;;;3.50;99.90;;;;;;5018001;28;20082;-83
2021/03/02 01:52:40;;;;;;;14.68;8.73;;;3.80;99.90;;;;;;4998640;28;20101;-84
2021/03/02 01:55:07;;;;;;;15.20;8.57;;;3.70;99.90;;;;;;5013078;28;20143;-83
2021/03/02 01:57:33;;;;;;;13.63;8.60;;;3.40;99.90;;;;;;5029498;28;20077;-82
2021/03/02 02:00:03;;;;;;;14.45;8.27;;;3.40;99.90;;;;;;5013196;28;20077;-83
2021/03/02 02:02:37;;;;;;;13.18;7.88;;;3.40;99.90;;;;;;5009266;28;20465;-84
2021/03/02 02:05:06;;;;;;;14.77;9.25;;;3.40;99.90;;;;;;5012696;28;20089;-84
2021/03/02 02:07:42;;;;;;;14.27;8.65;;;3.50;99.90;;;;;;5015540;28;20175;-84
2021/03/02 02:10:15;;;;;;;17.58;10.27;;;3.50;99.90;;;;;;5013197;28;20112;-84
2021/03/02 02:12:48;;;;;;;22.30;8.48;;;3.40;99.90;;;;;;5025752;28;20500;-82
2021/03/02 02:15:20;;;;;;;13.40;7.40;;;3.30;99.90;;;;;;5013926;28;20094;-86
2021/03/02 02:18:03;;;;;;;14.48;7.80;;;3.20;99.90;;;;;;4996340;28;20105;-85
2021/03/02 02:20:45;;;;;;;17.13;7.47;;;3.30;99.90;;;;;;4999707;28;20082;-85
2021/03/02 02:23:11;;;;;;;14.20;8.70;;;3.30;99.90;;;;;;4999993;28;20091;-85
2021/03/02 02:26:05;;;;;;;12.25;7.78;;;3.20;99.90;;;;;;5017184;28;20185;-86
2021/03/02 02:28:35;;;;;;;18.73;9.05;;;3.10;99.90;;;;;;4994716;28;20124;-87
2021/03/02 02:31:03;;;;;;;16.65;9.27;;;3.00;99.90;;;;;;4994768;28;20096;-87
2021/03/02 02:33:38;;;;;;;12.27;7.15;;;2.90;99.90;;;;;;5001310;28;20102;-87
2021/03/02 02:36:07;;;;;;;13.05;8.40;;;2.80;99.90;;;;;;5014758;28;20108;-88
2021/03/02 02:38:35;;;;;;;13.23;7.32;;;2.70;99.90;;;;;;5013391;28;20074;-86
2021/03/02 02:41:02;;;;;;;14.38;7.88;;;2.50;99.90;;;;;;5013503;28;20477;-88
2021/03/02 02:43:28;;;;;;;14.82;8.15;;;2.60;99.90;;;;;;5027091;28;20094;-87
2021/03/02 02:45:55;;;;;;;15.73;8.20;;;2.60;99.90;;;;;;5014064;28;20192;-87
2021/03/02 02:48:22;;;;;;;12.48;7.63;;;2.60;99.90;;;;;;5009772;28;20101;-87
2021/03/02 02:50:51;;;;;;;14.65;7.10;;;2.50;99.90;;;;;;4995840;28;20116;-86
2021/03/02 02:53:21;;;;;;;16.55;7.88;;;2.50;99.90;;;;;;4997165;28;20699;-85
2021/03/02 02:55:52;;;;;;;12.05;7.28;;;2.50;99.90;;;;;;5010284;28;20181;-86
2021/03/02 02:58:22;;;;;;;13.40;7.55;;;2.40;99.90;;;;;;5021109;28;20136;-86
2021/03/02 03:00:50;;;;;;;15.43;7.50;;;2.30;99.90;;;;;;5005441;28;20398;-86
2021/03/02 03:03:21;;;;;;;15.13;7.38;;;2.30;99.90;;;;;;4998042;28;20074;-83
2021/03/02 03:05:56;;;;;;;15.02;7.63;;;2.40;99.90;;;;;;5011076;28;20693;-84
2021/03/02 03:08:28;;;;;;;12.82;7.53;;;2.40;99.90;;;;;;4995574;28;20893;-83
2021/03/02 03:10:54;;;;;;;15.10;7.03;;;2.40;99.90;;;;;;4996199;28;20082;-84
2021/03/02 03:13:23;;;;;;;13.25;7.72;;;2.20;99.90;;;;;;5009503;28;20098;-84
2021/03/02 03:15:52;;;;;;;13.13;8.77;;;2.60;99.90;;;;;;5010483;28;20122;-85
2021/03/02 03:18:22;;;;;;;15.13;7.05;;;2.60;99.90;;;;;;5012209;28;20120;-84
2021/03/02 03:20:49;;;;;;;13.80;7.75;;;2.30;99.90;;;;;;4995312;28;20105;-85
2021/03/02 03:23:16;;;;;;;12.60;6.93;;;2.10;99.90;;;;;;5009389;28;20089;-84
2021/03/02 03:25:42;;;;;;;12.35;6.68;;;2.10;99.90;;;;;;4996937;28;20188;-84
2021/03/02 03:28:13;;;;;;;14.90;7.38;;;2.30;99.90;;;;;;5009518;28;20133;-84
2021/03/02 03:30:39;;;;;;;11.75;6.93;;;2.50;99.90;;;;;;5011133;28;20232;-85
2021/03/02 03:33:09;;;;;;;12.70;6.90;;;2.50;99.90;;;;;;5017291;28;20531;-86
2021/03/02 03:35:36;;;;;;;16.83;7.40;;;2.60;99.90;;;;;;4999823;28;20612;-86
2021/03/02 03:38:02;;;;;;;13.27;7.78;;;2.40;99.90;;;;;;5001679;28;20085;-84
2021/03/02 03:40:28;;;;;;;14.60;7.85;;;2.40;99.90;;;;;;5011690;28;20167;-87
2021/03/02 03:42:54;;;;;;;14.50;7.88;;;2.40;99.90;;;;;;4995582;28;20128;-87
2021/03/02 03:45:19;;;;;;;13.02;7.43;;;2.30;99.90;;;;;;5007590;28;20101;-87
2021/03/02 03:47:46;;;;;;;15.93;8.43;;;2.20;99.90;;;;;;5012576;28;20078;-87
2021/03/02 03:50:13;;;;;;;14.23;7.07;;;2.00;99.90;;;;;;5012316;28;20241;-86
2021/03/02 03:52:42;;;;;;;14.73;6.70;;;1.70;99.90;;;;;;5009378;28;20088;-87
2021/03/02 03:55:11;;;;;;;9.48;6.22;;;1.60;99.90;;;;;;5029150;28;20220;-87
2021/03/02 03:57:38;;;;;;;11.23;6.80;;;1.60;99.90;;;;;;5013355;28;20176;-87
2021/03/02 04:00:08;;;;;;;12.52;7.20;;;1.50;99.90;;;;;;5009692;28;20078;-85
2021/03/02 04:02:34;;;;;;;15.98;7.82;;;1.60;99.90;;;;;;4997327;28;20082;-85
2021/03/02 04:05:05;;;;;;;13.38;6.57;;;1.90;99.90;;;;;;4994240;28;20165;-86
2021/03/02 04:07:32;;;;;;;13.13;7.25;;;1.80;99.90;;;;;;5008093;28;20126;-86
2021/03/02 04:09:58;;;;;;;13.55;7.63;;;1.90;99.90;;;;;;4997031;28;20074;-86
2021/03/02 04:12:24;;;;;;;15.05;7.82;;;2.00;99.90;;;;;;5014458;28;20543;-85
2021/03/02 04:14:50;;;;;;;12.35;7.28;;;1.80;99.90;;;;;;5010765;28;20102;-85
2021/03/02 04:17:15;;;;;;;12.98;6.43;;;1.40;99.90;;;;;;4998832;28;20118;-86
2021/03/02 04:19:41;;;;;;;10.63;6.95;;;1.40;99.90;;;;;;5014879;28;20447;-86
2021/03/02 04:22:07;;;;;;;13.27;7.13;;;1.30;99.90;;;;;;5011339;28;20612;-86
2021/03/02 04:24:33;;;;;;;13.30;6.75;;;1.30;99.90;;;;;;5006864;28;20179;-85
2021/03/02 04:26:58;;;;;;;14.60;7.43;;;1.40;99.90;;;;;;5009389;28;20098;-85
2021/03/02 04:29:24;;;;;;;13.75;6.85;;;1.60;99.90;;;;;;4996609;28;20078;-86
2021/03/02 04:31:50;;;;;;;12.98;7.15;;;1.80;99.90;;;;;;5006015;28;20122;-84
2021/03/02 04:34:16;;;;;;;14.18;6.70;;;1.70;99.90;;;;;;5002135;28;20106;-84
2021/03/02 04:36:42;;;;;;;16.27;7.28;;;1.60;99.90;;;;;;5016525;28;20515;-84
2021/03/02 04:39:08;;;;;;;14.57;8.45;;;1.80;99.90;;;;;;5005705;28;20137;-81
2021/03/02 04:41:34;;;;;;;13.05;7.53;;;1.80;99.90;;;;;;5014735;28;20136;-84
2021/03/02 04:44:00;;;;;;;12.82;7.90;;;1.80;99.90;;;;;;5014827;28;20082;-84
2021/03/02 04:46:26;;;;;;;16.98;8.38;;;1.90;99.90;;;;;;5018544;28;20152;-85
2021/03/02 04:48:51;;;;;;;16.77;7.72;;;1.70;99.90;;;;;;5015907;28;20082;-85
2021/03/02 04:51:17;;;;;;;11.73;7.30;;;1.50;99.90;;;;;;5011888;28;20103;-85
2021/03/02 04:53:44;;;;;;;14.23;7.22;;;1.50;99.90;;;;;;5017772;28;20098;-84
2021/03/02 04:56:09;;;;;;;11.80;6.68;;;1.30;99.90;;;;;;5001576;28;20959;-84
2021/03/02 04:58:35;;;;;;;12.85;6.88;;;1.30;99.90;;;;;;5011318;28;20110;-84
2021/03/02 05:01:01;;;;;;;14.00;6.85;;;1.20;99.90;;;;;;5024380;28;20090;-83
2021/03/02 05:03:27;;;;;;;12.07;7.30;;;1.00;99.90;;;;;;5021417;28;20087;-86
2021/03/02 05:05:52;;;;;;;12.63;6.57;;;1.00;99.90;;;;;;5020490;28;20106;-83
2021/03/02 05:08:18;;;;;;;14.05;7.38;;;0.90;99.90;;;;;;5021244;28;20086;-85
2021/03/02 05:10:44;;;;;;;13.32;7.65;;;0.90;99.90;;;;;;5019842;28;20082;-85
2021/03/02 05:13:09;;;;;;;13.35;7.40;;;1.10;99.90;;;;;;5024750;28;20105;-85
2021/03/02 05:15:36;;;;;;;14.43;7.60;;;1.20;99.90;;;;;;5024996;28;20102;-86
2021/03/02 05:18:02;;;;;;;15.30;7.15;;;1.30;99.90;;;;;;5024584;28;20078;-85
2021/03/02 05:20:28;;;;;;;15.50;7.80;;;1.40;99.90;;;;;;5021486;28;20153;-83
2021/03/02 05:22:54;;;;;;;14.45;7.68;;;1.20;99.90;;;;;;5007112;28;20098;-83
2021/03/02 05:25:19;;;;;;;14.27;7.75;;;1.00;99.90;;;;;;5022272;28;20177;-84
2021/03/02 05:27:45;;;;;;;11.02;7.10;;;1.00;99.90;;;;;;5015343;28;20503;-79
2021/03/02 05:30:11;;;;;;;15.98;7.35;;;0.90;99.90;;;;;;5027117;28;20075;-80
2021/03/02 05:32:37;;;;;;;11.13;6.85;;;0.80;99.90;;;;;;5019709;28;20612;-79
2021/03/02 05:35:03;;;;;;;12.23;6.85;;;0.90;99.90;;;;;;5017214;28;20167;-80
2021/03/02 05:37:29;;;;;;;13.25;6.97;;;1.10;99.90;;;;;;5011558;28;20603;-79
2021/03/02 05:39:54;;;;;;;16.90;8.70;;;1.20;99.90;;;;;;5020081;28;20079;-81
2021/03/02 05:42:20;;;;;;;11.75;6.57;;;1.30;99.90;;;;;;5014884;28;20209;-82
2021/03/02 05:44:46;;;;;;;15.20;7.50;;;1.30;99.90;;;;;;5013512;28;20078;-81
2021/03/02 05:47:12;;;;;;;13.98;7.32;;;1.20;99.90;;;;;;5021563;28;20585;-80
2021/03/02 05:49:40;;;;;;;16.45;8.35;;;0.90;99.90;;;;;;5003729;28;20081;-80
2021/03/02 05:52:10;;;;;;;16.00;7.70;;;0.90;99.90;;;;;;5020608;28;20094;-82
2021/03/02 05:54:35;;;;;;;14.23;7.85;;;0.90;99.90;;;;;;5026936;28;20092;-82
2021/03/02 05:57:01;;;;;;;12.98;7.15;;;0.70;99.90;;;;;;5046164;28;20090;-82
2021/03/02 05:59:27;;;;;;;15.25;7.47;;;0.80;99.90;;;;;;5015358;28;20102;-82
2021/03/02 06:01:53;;;;;;;14.55;7.97;;;0.80;99.90;;;;;;5010299;28;20086;-82
2021/03/02 06:04:19;;;;;;;10.75;6.65;;;0.70;99.90;;;;;;5021029;28;20156;-85
2021/03/02 06:06:45;;;;;;;16.55;8.95;;;0.80;99.90;;;;;;5011424;28;20097;-84
2021/03/02 06:09:11;;;;;;;13.98;7.28;;;0.80;99.90;;;;;;5010847;28;20087;-83
2021/03/02 06:11:37;;;;;;;12.43;7.05;;;1.00;99.90;;;;;;5010785;28;20532;-82
2021/03/02 06:14:23;;;;;;;12.10;6.95;;;0.80;99.90;;;;;;5010767;28;20122;-84
2021/03/02 06:16:51;;;;;;;12.85;6.72;;;0.70;99.90;;;;;;5009178;28;20086;-80
2021/03/02 06:19:18;;;;;;;12.23;7.03;;;0.80;99.90;;;;;;5004835;28;20148;-80
2021/03/02 06:21:45;;;;;;;15.82;7.90;;;0.80;99.90;;;;;;5022087;28;20634;-81
2021/03/02 06:24:38;;;;;;;12.48;6.70;;;0.90;99.90;;;;;;5021858;28;20090;-80
2021/03/02 06:27:09;;;;;;;15.10;7.22;;;0.90;99.90;;;;;;5013276;28;20098;-80
2021/03/02 06:29:35;;;;;;;13.18;6.70;;;0.80;99.90;;;;;;5014102;28;20093;-81
2021/03/02 06:32:01;;;;;;;13.68;7.75;;;1.10;99.90;;;;;;5016272;28;20503;-80
2021/03/02 06:34:27;;;;;;;14.75;7.68;;;1.10;99.90;;;;;;5041268;28;20124;-80
2021/03/02 06:36:52;;;;;;;15.02;7.53;;;1.10;99.90;;;;;;5020995;28;20181;-80
2021/03/02 06:39:23;;;;;;;13.90;7.80;;;1.10;99.90;;;;;;5022253;28;20256;-80
2021/03/02 06:42:13;;;;;;;14.85;8.27;;;1.00;99.90;;;;;;5023256;28;20141;-80
2021/03/02 06:44:44;;;;;;;15.98;8.18;;;0.90;99.90;;;;;;5020029;28;20461;-80
2021/03/02 06:47:12;;;;;;;15.77;8.23;;;0.90;99.90;;;;;;5017735;28;20085;-80
2021/03/02 06:49:40;;;;;;;14.85;7.72;;;0.80;99.90;;;;;;5016877;28;20088;-80
2021/03/02 06:52:17;;;;;;;15.30;9.40;;;0.60;99.90;;;;;;5013144;28;21606;-80
2021/03/02 06:54:45;;;;;;;18.48;10.65;;;0.80;99.90;;;;;;5037370;28;20100;-80
2021/03/02 06:57:10;;;;;;;17.00;9.48;;;1.00;99.90;;;;;;5011632;28;20075;-81
2021/03/02 06:59:36;;;;;;;20.30;11.68;;;1.10;99.90;;;;;;5024239;28;20074;-80
2021/03/02 07:02:02;;;;;;;18.65;9.55;;;0.80;99.90;;;;;;5030993;28;20078;-80
2021/03/02 07:04:29;;;;;;;18.67;9.27;;;0.90;99.90;;;;;;5012337;28;20093;-80
2021/03/02 07:07:01;;;;;;;16.85;8.40;;;0.80;99.90;;;;;;5010488;28;20562;-81
2021/03/02 07:09:27;;;;;;;13.40;7.80;;;1.30;99.90;;;;;;5012704;28;20138;-81
2021/03/02 07:11:58;;;;;;;17.38;8.43;;;1.40;99.90;;;;;;5017134;28;20078;-80
2021/03/02 07:14:26;;;;;;;17.88;10.07;;;1.50;99.90;;;;;;5012495;28;20121;-81
2021/03/02 07:16:53;;;;;;;17.17;10.50;;;1.60;99.90;;;;;;5014257;28;20105;-81
2021/03/02 07:19:23;;;;;;;22.50;12.13;;;2.00;99.90;;;;;;5001545;28;20595;-82
2021/03/02 07:21:54;;;;;;;25.20;12.15;;;2.20;99.90;;;;;;4995819;28;20508;-84
2021/03/02 07:24:24;;;;;;;25.83;13.18;;;2.30;99.90;;;;;;5007694;28;20100;-84
2021/03/02 07:26:52;;;;;;;20.42;12.57;;;2.30;99.90;;;;;;4994671;28;20094;-84
2021/03/02 07:29:19;;;;;;;24.08;13.35;;;2.30;99.90;;;;;;5002650;28;20078;-85
2021/03/02 07:31:45;;;;;;;23.90;12.48;;;2.20;99.90;;;;;;5008940;28;20363;-85
2021/03/02 07:34:12;;;;;;;22.98;13.05;;;2.20;99.90;;;;;;5017510;28;20189;-86
2021/03/02 07:36:43;;;;;;;24.90;13.20;;;2.20;99.90;;;;;;5012651;28;20090;-86
2021/03/02 07:39:16;;;;;;;25.50;13.85;;;2.30;99.90;;;;;;4995996;28;20074;-87
2021/03/02 07:41:42;;;;;;;29.25;13.93;;;2.40;99.90;;;;;;4996424;28;20091;-86
2021/03/02 07:44:08;;;;;;;24.98;14.25;;;2.50;99.90;;;;;;4995710;28;20736;-86
2021/03/02 07:46:37;;;;;;;31.50;13.40;;;2.50;99.90;;;;;;5021174;28;20185;-86
2021/03/02 07:49:22;;;;;;;31.60;12.88;;;2.60;99.90;;;;;;5007983;28;20083;-87
2021/03/02 07:52:09;;;;;;;31.15;15.85;;;2.70;99.90;;;;;;5013046;28;20167;-86
2021/03/02 07:54:35;;;;;;;30.63;14.95;;;2.80;99.90;;;;;;4997801;28;20101;-86
2021/03/02 07:57:16;;;;;;;22.52;12.52;;;3.00;99.90;;;;;;5001267;28;20094;-86
2021/03/02 07:59:42;;;;;;;25.50;13.90;;;3.10;99.90;;;;;;5018702;28;20288;-85
2021/03/02 08:02:17;;;;;;;22.77;12.15;;;3.20;99.90;;;;;;5009105;28;20081;-85
2021/03/02 08:04:52;;;;;;;22.75;12.75;;;3.30;99.90;;;;;;5015004;28;20081;-85
2021/03/02 08:07:24;;;;;;;;;;;3.40;99.90;;;;;;5013067;28;20081;-84
2021/03/02 08:09:52;;;;;;;22.38;11.57;;;3.40;99.90;;;;;;5002043;28;20153;-83
2021/03/02 08:12:36;;;;;;;21.38;12.15;;;3.40;99.90;;;;;;5018309;28;20078;-83
2021/03/02 08:15:22;;;;;;;25.67;12.63;;;3.50;99.90;;;;;;5014641;28;20540;-83
2021/03/02 08:17:48;;;;;;;22.33;13.13;;;3.60;99.90;;;;;;5001429;28;20113;-83
2021/03/02 08:20:14;;;;;;;21.83;13.55;;;3.70;99.90;;;;;;5003789;28;20077;-82
2021/03/02 08:22:42;;;;;;;25.63;13.73;;;3.80;99.90;;;;;;5016859;28;20144;-83
2021/03/02 08:25:27;;;;;;;27.65;13.48;;;3.90;99.90;;;;;;5016468;28;20112;-82
2021/03/02 08:27:59;;;;;;;25.15;12.90;;;4.00;99.90;;;;;;5022162;28;20726;-82
2021/03/02 08:30:28;;;;;;;21.90;12.38;;;4.00;99.90;;;;;;5010312;28;20090;-81
2021/03/02 08:32:56;;;;;;;25.70;13.23;;;4.20;99.90;;;;;;5006633;28;20094;-81
2021/03/02 08:35:30;;;;;;;18.75;11.73;;;4.20;99.90;;;;;;5001969;28;20086;-82
2021/03/02 08:37:59;;;;;;;22.50;12.55;;;4.40;99.90;;;;;;4998297;28;20101;-80
2021/03/02 08:40:45;;;;;;;21.60;12.45;;;4.40;99.90;;;;;;5000250;28;20156;-81
2021/03/02 08:43:12;;;;;;;23.30;12.30;;;4.50;99.90;;;;;;5014728;28;20121;-82
2021/03/02 08:45:41;;;;;;;21.77;11.88;;;4.70;99.90;;;;;;5018499;28;20100;-81
2021/03/02 08:48:33;;;;;;;17.38;11.65;;;4.70;99.90;;;;;;5017512;28;20106;-81
2021/03/02 08:50:59;;;;;;;19.67;10.85;;;4.90;99.90;;;;;;5027808;28;20655;-81
2021/03/02 08:53:38;;;;;;;22.33;11.00;;;5.00;99.90;;;;;;5014097;28;20105;-82
2021/03/02 08:56:20;;;;;;;18.77;11.00;;;5.10;99.90;;;;;;5016042;28;20869;-81
2021/03/02 08:58:51;;;;;;;19.25;10.68;;;5.20;99.90;;;;;;5009341;28;20525;-81
2021/03/02 09:01:33;;;;;;;16.48;9.57;;;5.80;99.90;;;;;;4996820;28;20161;-81
2021/03/02 09:04:08;;;;;;;17.40;9.68;;;5.90;99.90;;;;;;5000596;28;20636;-82
2021/03/02 09:06:35;;;;;;;;;;;5.90;99.90;;;;;;5001037;28;20189;-81
2021/03/02 09:09:06;;;;;;;16.42;7.88;;;6.00;99.90;;;;;;5012026;28;19962;-82
2021/03/02 09:11:40;;;;;;;13.23;7.13;;;6.00;99.90;;;;;;5003790;28;20169;-81
2021/03/02 09:14:13;;;;;;;14.13;8.40;;;6.00;99.90;;;;;;5010748;28;20098;-81
2021/03/02 09:17:00;;;;;;;12.38;7.25;;;6.20;99.90;;;;;;5018848;28;20148;-84
2021/03/02 09:19:41;;;;;;;11.05;7.97;;;6.70;99.90;;;;;;5022362;28;20086;-85
2021/03/02 09:22:11;;;;;;;13.23;7.28;;;7.00;99.90;;;;;;5007129;28;20096;-84
2021/03/02 09:24:45;;;;;;;11.73;6.90;;;7.10;99.90;;;;;;5019501;28;20634;-84
2021/03/02 09:27:16;;;;;;;;;;;6.80;99.90;;;;;;5021067;28;20128;-86
2021/03/02 09:29:51;;;;;;;13.60;7.07;;;7.10;99.90;;;;;;5001084;28;19961;-84
2021/03/02 09:32:23;;;;;;;13.68;6.75;;;7.10;99.90;;;;;;5005754;28;20586;-84
2021/03/02 09:35:03;;;;;;;11.35;7.00;;;7.00;99.90;;;;;;5035647;28;20100;-83
2021/03/02 09:37:29;;;;;;;9.93;6.88;;;6.90;99.90;;;;;;5000290;28;20137;-83
2021/03/02 09:40:05;;;;;;;12.77;6.07;;;6.90;99.90;;;;;;5024986;28;20436;-83
2021/03/02 09:42:34;;;;;;;11.05;6.28;;;7.10;99.90;;;;;;5006068;28;20089;-88
2021/03/02 09:45:13;;;;;;;10.85;6.28;;;7.20;99.90;;;;;;5017984;28;20169;-84
2021/03/02 09:47:41;;;;;;;14.40;7.93;;;7.20;99.90;;;;;;5008089;28;20604;-85
2021/03/02 09:50:14;;;;;;;13.85;8.93;;;7.50;99.90;;;;;;5017792;28;20074;-85
2021/03/02 09:52:47;;;;;;;13.27;8.25;;;7.30;99.90;;;;;;5006895;28;20083;-85
2021/03/02 09:55:16;;;;;;;7.80;5.85;;;7.50;99.90;;;;;;5014554;28;20156;-85
2021/03/02 09:57:57;;;;;;;12.15;6.20;;;7.70;99.90;;;;;;5025078;28;20078;-86
2021/03/02 10:00:31;;;;;;;14.27;8.13;;;7.80;99.90;;;;;;5008055;28;20086;-84
2021/03/02 10:02:59;;;;;;;15.00;8.57;;;7.60;99.90;;;;;;5011768;28;20078;-85
2021/03/02 10:05:30;;;;;;;11.93;7.95;;;7.60;99.90;;;;;;5012422;28;20102;-84
2021/03/02 10:07:55;;;;;;;13.27;7.45;;;7.60;99.90;;;;;;5000814;28;20082;-84
2021/03/02 10:10:38;;;;;;;13.85;8.40;;;7.60;99.90;;;;;;5014041;28;20163;-85
2021/03/02 10:13:04;;;;;;;12.77;8.45;;;7.70;99.90;;;;;;5011175;28;20236;-85
2021/03/02 10:15:33;;;;;;;8.95;6.28;;;7.80;99.90;;;;;;5012829;28;20765;-85
2021/03/02 10:18:21;;;;;;;9.75;6.55;;;7.90;99.90;;;;;;5015683;28;20133;-84
2021/03/02 10:21:09;;;;;;;10.13;6.28;;;8.10;99.90;;;;;;5017783;28;20142;-85
2021/03/02 10:23:41;;;;;;;9.32;6.10;;;8.30;99.90;;;;;;5011761;28;20142;-84
2021/03/02 10:26:07;;;;;;;13.48;9.05;;;8.30;99.90;;;;;;5019867;28;20090;-85
2021/03/02 10:28:37;;;;;;;13.32;8.57;;;8.30;99.90;;;;;;5006612;28;20070;-83
2021/03/02 10:31:04;;;;;;;12.35;7.88;;;8.40;99.90;;;;;;5018919;28;20085;-85
2021/03/02 10:33:30;;;;;;;12.75;8.20;;;8.30;99.90;;;;;;5010123;28;20094;-85
2021/03/02 10:35:56;;;;;;;16.55;9.43;;;8.40;99.90;;;;;;5020242;28;20086;-85
2021/03/02 10:38:21;;;;;;;16.15;8.43;;;8.60;99.90;;;;;;5019595;28;20093;-85
2021/03/02 10:40:47;;;;;;;16.77;11.25;;;8.90;99.90;;;;;;5009866;28;20114;-86
2021/03/02 10:43:13;;;;;;;21.38;11.93;;;8.80;99.90;;;;;;5016806;28;20105;-86
2021/03/02 10:45:40;;;;;;;19.77;11.80;;;8.90;99.90;;;;;;5007257;28;20106;-85
2021/03/02 10:48:06;;;;;;;19.77;11.43;;;8.90;99.90;;;;;;5022692;28;20083;-85
2021/03/02 10:50:33;;;;;;;17.33;11.07;;;8.90;99.90;;;;;;5017839;28;20093;-86
2021/03/02 10:52:59;;;;;;;20.00;13.00;;;8.90;99.90;;;;;;5013427;28;20547;-85
2021/03/02 10:55:24;;;;;;;18.98;10.73;;;8.90;99.90;;;;;;5009680;28;20155;-85
2021/03/02 10:57:51;;;;;;;19.92;11.95;;;8.80;99.90;;;;;;5018091;28;20086;-85
2021/03/02 11:00:17;;;;;;;23.45;13.30;;;8.90;99.90;;;;;;5005302;28;20156;-85
2021/03/02 11:02:44;;;;;;;21.90;12.10;;;9.00;99.90;;;;;;5012799;28;20074;-85
2021/03/02 11:05:11;;;;;;;20.17;13.35;;;9.00;99.90;;;;;;5010358;28;20098;-85
2021/03/02 11:07:40;;;;;;;18.85;12.85;;;9.10;99.90;;;;;;5034047;28;20539;-86
2021/03/02 11:10:07;;;;;;;19.42;12.07;;;9.20;99.90;;;;;;5007541;28;20075;-85
2021/03/02 11:12:45;;;;;;;23.35;13.02;;;9.10;99.90;;;;;;5019004;28;20078;-88
2021/03/02 11:15:14;;;;;;;19.42;11.93;;;9.00;99.90;;;;;;5011456;28;20098;-87
2021/03/02 11:17:40;;;;;;;20.63;12.45;;;9.10;99.90;;;;;;5004866;28;20438;-86
2021/03/02 11:20:06;;;;;;;19.60;12.02;;;9.20;99.90;;;;;;5011441;28;20125;-84
2021/03/02 11:22:32;;;;;;;20.50;12.45;;;9.20;99.90;;;;;;5004656;28;20552;-85
2021/03/02 11:24:58;;;;;;;21.40;12.25;;;9.30;99.90;;;;;;5007820;28;20165;-85
2021/03/02 11:27:24;;;;;;;20.02;11.20;;;9.30;99.90;;;;;;5006594;28;20164;-85
2021/03/02 11:29:50;;;;;;;21.85;12.88;;;9.40;99.90;;;;;;5010600;28;20089;-87
2021/03/02 11:32:16;;;;;;;21.38;12.88;;;9.50;99.90;;;;;;5005416;28;20232;-84
2021/03/02 11:34:42;;;;;;;20.10;11.82;;;9.50;99.90;;;;;;4995552;28;20189;-83
2021/03/02 11:37:08;;;;;;;20.70;12.88;;;9.60;99.90;;;;;;5008900;28;20189;-84
2021/03/02 11:39:33;;;;;;;20.45;12.57;;;9.40;99.90;;;;;;5012925;28;20707;-85
2021/03/02 11:41:59;;;;;;;19.00;11.52;;;9.60;99.90;;;;;;5003514;28;20177;-85
2021/03/02 11:44:26;;;;;;;17.88;10.57;;;9.50;99.90;;;;;;5013171;28;20082;-86
2021/03/02 11:46:52;;;;;;;22.98;11.27;;;9.40;99.90;;;;;;5010218;28;20110;-87
2021/03/02 11:49:20;;;;;;;22.40;11.32;;;9.60;99.90;;;;;;5014158;28;20085;-86
2021/03/02 11:51:46;;;;;;;18.48;12.75;;;9.40;99.90;;;;;;4994544;28;20556;-87
2021/03/02 11:54:15;;;;;;;18.25;11.55;;;9.70;99.90;;;;;;4993420;28;20169;-86
2021/03/02 11:56:53;;;;;;;18.92;10.95;;;9.80;99.90;;;;;;4994984;28;20093;-87
2021/03/02 11:59:19;;;;;;;17.98;10.60;;;9.80;99.90;;;;;;5007051;28;20153;-86
2021/03/02 12:01:44;;;;;;;18.80;11.32;;;9.80;99.90;;;;;;5002521;28;20110;-88
2021/03/02 12:04:10;;;;;;;18.73;11.07;;;9.90;99.90;;;;;;5006819;28;20587;-87
2021/03/02 12:06:36;;;;;;;17.75;11.38;;;9.90;99.90;;;;;;5008049;28;20108;-87
2021/03/02 12:09:17;;;;;;;20.20;11.55;;;9.80;99.90;;;;;;5010226;28;20562;-87
2021/03/02 12:11:42;;;;;;;17.38;11.63;;;9.90;99.90;;;;;;5011069;28;20082;-88
2021/03/02 12:14:08;;;;;;;16.02;10.73;;;10.00;99.90;;;;;;5006853;28;20094;-87
2021/03/02 12:16:34;;;;;;;19.38;11.23;;;10.10;99.90;;;;;;5015096;28;20085;-88
2021/03/02 12:19:07;;;;;;;18.83;11.45;;;10.40;99.00;;;;;;5016556;28;20165;-87
2021/03/02 12:21:33;;;;;;;16.00;10.50;;;10.30;99.30;;;;;;4999420;28;20078;-88
2021/03/02 12:23:59;;;;;;;17.08;10.30;;;10.20;99.70;;;;;;5014524;28;20618;-88
2021/03/02 12:26:25;;;;;;;14.35;10.30;;;10.20;99.00;;;;;;5014468;28;20125;-87
2021/03/02 12:28:50;;;;;;;15.18;9.75;;;10.30;99.20;;;;;;5020214;28;20089;-86
2021/03/02 12:31:16;;;;;;;16.17;11.00;;;10.10;99.00;;;;;;5020565;28;20733;-85
2021/03/02 12:33:42;;;;;;;17.55;10.73;;;10.40;98.90;;;;;;5023100;28;20104;-84
2021/03/02 12:36:08;;;;;;;15.70;9.55;;;10.30;98.00;;;;;;5024653;28;20106;-85
2021/03/02 12:38:33;;;;;;;17.15;10.20;;;10.40;96.70;;;;;;5015159;28;20082;-83
2021/03/02 12:40:59;;;;;;;16.33;8.80;;;10.40;97.10;;;;;;4995404;28;20074;-83
2021/03/02 12:43:25;;;;;;;13.90;8.93;;;10.60;96.50;;;;;;5011796;28;20490;-84
2021/03/02 12:45:51;;;;;;;18.20;11.30;;;10.50;96.50;;;;;;5007197;28;20094;-83
2021/03/02 12:48:16;;;;;;;16.30;10.30;;;10.50;99.10;;;;;;5002350;28;20086;-82
2021/03/02 12:50:42;;;;;;;15.52;10.00;;;10.50;98.90;;;;;;5010294;28;20476;-83
2021/03/02 12:53:08;;;;;;;17.23;10.40;;;10.50;97.60;;;;;;5005825;28;20093;-83